Time;durP1;ratioP1;P1;durP2;ratioP2;P2;SDS_P1;SDS_P2;PMS_P1;PMS_P2;Temp;Humidity;BMP_temperature;BMP_pressure;BME280_temperature;BME280_humidity;BME280_pressure;Samples;Min_cycle;Max_cycle;Signal;HPM_P1;HPM_P2
2022/11/28 00:00:58;;;;;;;5.60;3.63;;;0.40;99.90;;;;;;5097622;28;20991;-47
2022/11/28 00:03:25;;;;;;;6.53;4.60;;;0.40;99.90;;;;;;5097891;28;20530;-47
2022/11/28 00:05:52;;;;;;;5.20;3.90;;;0.60;99.90;;;;;;5097685;28;20893;-49
2022/11/28 00:08:19;;;;;;;3.20;2.90;;;0.70;99.90;;;;;;5097893;28;20531;-47
2022/11/28 00:10:46;;;;;;;2.17;1.97;;;0.60;99.90;;;;;;5097854;28;20460;-48
2022/11/28 00:13:13;;;;;;;1.87;1.50;;;0.70;99.90;;;;;;5097378;28;20746;-48
2022/11/28 00:15:40;;;;;;;3.07;1.57;;;0.60;99.90;;;;;;5097514;28;20475;-48
2022/11/28 00:18:09;;;;;;;5.93;4.00;;;0.50;99.90;;;;;;5097999;28;20530;-49
2022/11/28 00:20:36;;;;;;;3.60;2.97;;;0.50;99.90;;;;;;5097757;28;20443;-47
2022/11/28 00:23:03;;;;;;;3.20;2.90;;;-0.10;99.90;;;;;;5097500;28;20443;-49
2022/11/28 00:25:29;;;;;;;3.37;2.67;;;-0.30;99.90;;;;;;5097199;28;20497;-47
2022/11/28 00:27:56;;;;;;;3.10;2.47;;;-0.10;99.90;;;;;;5097787;28;20446;-48
2022/11/28 00:30:23;;;;;;;4.20;2.97;;;0.00;99.90;;;;;;5097707;28;20447;-48
2022/11/28 00:32:50;;;;;;;10.27;3.53;;;0.20;99.90;;;;;;5097543;28;20442;-47
2022/11/28 00:35:18;;;;;;;9.20;4.20;;;0.30;99.90;;;;;;5097407;28;20475;-48
2022/11/28 00:37:45;;;;;;;10.27;3.87;;;0.50;99.90;;;;;;5097580;28;20440;-47
2022/11/28 00:40:12;;;;;;;2.20;1.47;;;0.40;99.90;;;;;;5097738;28;20444;-48
2022/11/28 00:42:38;;;;;;;3.37;2.00;;;0.60;99.90;;;;;;5097207;28;21032;-47
2022/11/28 00:45:06;;;;;;;3.80;1.53;;;0.70;99.90;;;;;;5097286;28;20448;-48
2022/11/28 00:47:33;;;;;;;2.40;1.30;;;0.70;99.90;;;;;;5097750;28;20471;-48
2022/11/28 00:50:00;;;;;;;1.80;1.57;;;0.70;99.90;;;;;;5097677;28;20436;-48
2022/11/28 00:52:28;;;;;;;1.93;1.73;;;0.80;99.90;;;;;;5094264;28;20470;-49
2022/11/28 00:54:55;;;;;;;2.93;1.90;;;0.70;99.90;;;;;;5094180;28;20444;-48
2022/11/28 00:57:22;;;;;;;2.97;1.87;;;0.60;99.90;;;;;;5094020;28;20454;-47
2022/11/28 00:59:48;;;;;;;1.80;1.30;;;0.70;99.90;;;;;;5094431;28;20436;-47
2022/11/28 01:02:15;;;;;;;1.77;1.37;;;0.70;99.90;;;;;;5093872;28;20460;-49
2022/11/28 01:04:42;;;;;;;2.03;1.20;;;0.60;99.90;;;;;;5093839;28;20948;-47
2022/11/28 01:07:09;;;;;;;1.67;1.40;;;0.50;99.90;;;;;;5093533;28;20450;-48
2022/11/28 01:09:37;;;;;;;4.63;1.53;;;0.50;99.90;;;;;;5094187;28;20447;-48
2022/11/28 01:12:05;;;;;;;5.20;2.70;;;0.60;99.90;;;;;;5093880;28;20468;-48
2022/11/28 01:14:31;;;;;;;4.83;3.33;;;0.60;99.90;;;;;;5093814;28;20896;-50
2022/11/28 01:16:58;;;;;;;6.13;3.80;;;0.40;99.90;;;;;;5093438;28;20903;-47
2022/11/28 01:19:25;;;;;;;5.53;3.10;;;0.50;99.90;;;;;;5093719;28;20446;-47
2022/11/28 01:21:52;;;;;;;6.10;3.33;;;0.50;99.90;;;;;;5093640;28;20488;-51
2022/11/28 01:24:19;;;;;;;10.33;4.10;;;0.60;99.90;;;;;;5093409;28;20489;-48
2022/11/28 01:26:47;;;;;;;7.93;4.77;;;0.50;99.90;;;;;;5093455;28;20436;-48
2022/11/28 01:29:15;;;;;;;10.70;4.17;;;0.50;99.90;;;;;;5093384;28;20436;-49
2022/11/28 01:31:41;;;;;;;10.20;4.77;;;0.40;99.90;;;;;;5093406;28;20987;-47
2022/11/28 01:34:08;;;;;;;11.20;4.87;;;0.40;99.90;;;;;;5092674;28;20447;-48
2022/11/28 01:36:35;;;;;;;11.30;5.30;;;0.50;99.90;;;;;;5093311;28;20560;-49
2022/11/28 01:39:02;;;;;;;7.33;4.07;;;0.40;99.90;;;;;;5093507;28;20443;-47
2022/11/28 01:41:29;;;;;;;4.30;2.57;;;0.50;99.90;;;;;;5093281;28;20967;-47
2022/11/28 01:44:28;;;;;;;3.70;2.40;;;0.50;99.90;;;;;;5093265;28;20446;-48
2022/11/28 01:46:55;;;;;;;3.53;2.90;;;0.20;99.90;;;;;;5092745;28;20436;-47
2022/11/28 01:49:25;;;;;;;3.90;2.20;;;0.30;99.90;;;;;;5093052;28;20960;-50
2022/11/28 01:51:58;;;;;;;3.83;1.70;;;0.00;99.90;;;;;;5093128;28;20566;-50
2022/11/28 01:54:26;;;;;;;2.13;1.93;;;-0.10;99.90;;;;;;5092600;28;20534;-48
2022/11/28 01:56:57;;;;;;;4.43;1.70;;;0.00;99.90;;;;;;5092901;28;20555;-47
2022/11/28 01:59:29;;;;;;;1.93;1.47;;;0.20;99.90;;;;;;5092799;28;20540;-47
2022/11/28 02:01:56;;;;;;;1.90;1.60;;;0.30;99.90;;;;;;5092746;28;20456;-47
2022/11/28 02:04:27;;;;;;;1.80;1.70;;;0.30;99.90;;;;;;5092341;28;20450;-48
2022/11/28 02:06:54;;;;;;;2.50;1.63;;;0.30;99.90;;;;;;5092689;28;20527;-47
2022/11/28 02:09:21;;;;;;;1.50;1.23;;;0.50;99.90;;;;;;5091760;28;20523;-50
2022/11/28 02:12:15;;;;;;;1.53;1.43;;;0.50;99.90;;;;;;5093105;28;20470;-48
2022/11/28 02:15:14;;;;;;;1.10;0.90;;;0.50;99.90;;;;;;5092086;28;20447;-48
2022/11/28 02:17:56;;;;;;;1.43;1.07;;;0.50;99.90;;;;;;5090000;28;20798;-47
2022/11/28 02:20:52;;;;;;;1.77;1.13;;;0.30;99.90;;;;;;5072540;28;20440;-48
2022/11/28 02:23:27;;;;;;;1.20;1.07;;;0.50;99.90;;;;;;5080598;28;20448;-47
2022/11/28 02:26:35;;;;;;;1.20;1.10;;;0.70;99.90;;;;;;5092787;28;20446;-48
2022/11/28 02:29:33;;;;;;;2.03;0.93;;;0.60;99.90;;;;;;5092579;28;20876;-47
2022/11/28 02:32:19;;;;;;;1.50;0.90;;;0.50;99.90;;;;;;5093574;28;20532;-49
2022/11/28 02:34:55;;;;;;;1.60;1.23;;;0.60;99.90;;;;;;5083499;28;20441;-47
2022/11/28 02:37:29;;;;;;;1.83;1.60;;;0.70;99.90;;;;;;5071803;28;20567;-47
2022/11/28 02:40:07;;;;;;;2.10;1.20;;;0.70;99.90;;;;;;5071993;28;20447;-47
2022/11/28 02:42:42;;;;;;;1.50;1.30;;;0.20;99.90;;;;;;5071820;28;20540;-48
2022/11/28 02:45:14;;;;;;;3.43;2.00;;;0.20;99.90;;;;;;5072054;28;20445;-50
2022/11/28 02:47:48;;;;;;;4.10;1.63;;;0.30;99.90;;;;;;5072299;28;20433;-46
2022/11/28 02:50:21;;;;;;;1.90;1.60;;;0.40;99.90;;;;;;5071747;28;20443;-48
2022/11/28 02:52:51;;;;;;;1.23;1.13;;;0.40;99.90;;;;;;5071585;28;20540;-48
2022/11/28 02:55:18;;;;;;;1.80;1.50;;;0.40;99.90;;;;;;5071601;28;20988;-49
2022/11/28 02:57:48;;;;;;;2.13;1.93;;;0.50;99.90;;;;;;5071547;28;20481;-47
2022/11/28 03:00:30;;;;;;;1.73;1.50;;;0.50;99.90;;;;;;5071564;28;20441;-48
2022/11/28 03:03:32;;;;;;;1.90;1.80;;;0.40;99.90;;;;;;5071702;28;20539;-48
2022/11/28 03:06:05;;;;;;;1.80;1.57;;;0.30;99.90;;;;;;5047171;28;20529;-51
2022/11/28 03:08:44;;;;;;;2.20;1.80;;;0.50;99.90;;;;;;5071763;28;20452;-48
2022/11/28 03:11:18;;;;;;;2.80;1.87;;;0.50;99.90;;;;;;5079780;28;20463;-47
2022/11/28 03:13:53;;;;;;;2.23;1.43;;;0.60;99.90;;;;;;5091702;28;20531;-47
2022/11/28 03:16:27;;;;;;;2.00;1.80;;;0.60;99.90;;;;;;5091188;28;20483;-47
2022/11/28 03:19:05;;;;;;;2.00;1.80;;;0.60;99.90;;;;;;5091508;28;20834;-48
2022/11/28 03:21:39;;;;;;;3.40;1.70;;;0.60;99.90;;;;;;5071300;28;20464;-48
2022/11/28 03:24:12;;;;;;;2.33;1.60;;;0.60;99.90;;;;;;5075653;28;20820;-50
2022/11/28 03:26:47;;;;;;;2.50;1.93;;;0.70;99.90;;;;;;5091366;28;20518;-47
2022/11/28 03:29:20;;;;;;;1.50;1.40;;;0.80;99.90;;;;;;5091611;28;20967;-47
2022/11/28 03:31:51;;;;;;;1.67;1.10;;;0.80;99.90;;;;;;5091169;28;20558;-48
2022/11/28 03:34:24;;;;;;;2.50;1.30;;;0.60;99.90;;;;;;5090819;28;20518;-50
2022/11/28 03:36:55;;;;;;;2.70;2.13;;;0.70;99.90;;;;;;5091765;28;20571;-49
2022/11/28 03:39:28;;;;;;;2.30;1.97;;;0.80;99.90;;;;;;5091209;28;20540;-47
2022/11/28 03:41:59;;;;;;;3.30;2.20;;;0.50;99.90;;;;;;5090935;28;20568;-48
2022/11/28 03:44:29;;;;;;;2.67;2.47;;;0.30;99.90;;;;;;5091177;28;20522;-48
2022/11/28 03:46:59;;;;;;;2.50;1.70;;;0.30;99.90;;;;;;5091355;28;20438;-47
2022/11/28 03:49:32;;;;;;;1.97;1.30;;;0.30;99.90;;;;;;5091269;28;20524;-48
2022/11/28 03:52:02;;;;;;;2.33;1.97;;;0.50;99.90;;;;;;5090845;28;20555;-47
2022/11/28 03:54:34;;;;;;;2.83;1.77;;;0.10;99.90;;;;;;5091090;28;20535;-50
2022/11/28 03:57:07;;;;;;;2.47;1.80;;;-0.20;99.90;;;;;;5091064;28;20563;-47
2022/11/28 03:59:37;;;;;;;2.80;2.40;;;-0.40;99.90;;;;;;5091011;28;20535;-48
2022/11/28 04:02:11;;;;;;;3.13;2.00;;;-0.40;99.90;;;;;;5091341;28;20460;-47
2022/11/28 04:04:45;;;;;;;4.90;2.50;;;-0.30;99.90;;;;;;5090716;28;20440;-47
2022/11/28 04:07:23;;;;;;;4.50;3.47;;;-0.40;99.90;;;;;;5090969;28;20530;-51
2022/11/28 04:09:56;;;;;;;2.60;2.33;;;-0.60;99.90;;;;;;5090386;28;20534;-47
2022/11/28 04:12:35;;;;;;;5.43;3.20;;;-0.70;99.90;;;;;;5090857;28;21042;-49
2022/11/28 04:15:09;;;;;;;4.00;2.30;;;-0.60;99.90;;;;;;5090618;28;20435;-47
2022/11/28 04:17:39;;;;;;;3.60;3.00;;;-0.30;99.90;;;;;;5090969;28;20475;-47
2022/11/28 04:20:12;;;;;;;4.47;3.30;;;0.00;99.90;;;;;;5090812;28;20974;-47
2022/11/28 04:22:46;;;;;;;2.43;2.20;;;0.10;99.90;;;;;;5090805;28;20464;-47
2022/11/28 04:25:15;;;;;;;5.03;2.83;;;0.20;99.90;;;;;;5090838;28;20530;-49
2022/11/28 04:27:47;;;;;;;3.70;2.60;;;0.30;99.90;;;;;;5093065;28;20527;-48
2022/11/28 04:30:14;;;;;;;2.23;1.10;;;0.50;99.90;;;;;;5094718;28;20479;-49
2022/11/28 04:32:47;;;;;;;1.37;1.27;;;0.70;99.90;;;;;;5094368;28;20471;-48
2022/11/28 04:35:22;;;;;;;2.30;1.83;;;0.80;99.90;;;;;;5094216;28;20451;-49
2022/11/28 04:37:51;;;;;;;2.50;2.20;;;0.70;99.90;;;;;;5094170;28;20984;-47
2022/11/28 04:40:20;;;;;;;3.53;2.70;;;0.90;99.90;;;;;;5094701;28;20436;-47
2022/11/28 04:42:52;;;;;;;3.33;2.23;;;0.80;99.90;;;;;;5094690;28;20519;-47
2022/11/28 04:45:25;;;;;;;3.60;2.50;;;0.80;99.90;;;;;;5094248;28;20957;-47
2022/11/28 04:47:52;;;;;;;3.40;2.00;;;0.80;99.90;;;;;;5094272;28;20527;-47
2022/11/28 04:50:24;;;;;;;2.40;1.90;;;0.80;99.90;;;;;;5094392;28;20449;-47
2022/11/28 04:52:55;;;;;;;1.80;1.50;;;0.70;99.90;;;;;;5093611;28;20444;-48
2022/11/28 04:55:29;;;;;;;1.80;1.30;;;0.70;99.90;;;;;;5094213;28;20440;-47
2022/11/28 04:58:03;;;;;;;1.43;1.10;;;0.80;99.90;;;;;;5094476;28;20570;-50
2022/11/28 05:00:33;;;;;;;3.10;1.73;;;0.90;99.90;;;;;;5094141;28;20446;-49
2022/11/28 05:03:00;;;;;;;1.90;1.50;;;0.90;99.90;;;;;;5093959;28;20478;-51
2022/11/28 05:05:29;;;;;;;2.57;1.97;;;1.00;99.90;;;;;;5093842;28;20532;-47
2022/11/28 05:07:57;;;;;;;1.80;1.47;;;1.00;99.90;;;;;;5094065;28;20538;-47
2022/11/28 05:10:24;;;;;;;3.53;2.10;;;1.10;99.90;;;;;;5093634;28;20544;-48
2022/11/28 05:12:51;;;;;;;5.00;3.27;;;0.80;99.90;;;;;;5093780;28;20530;-44
2022/11/28 05:15:18;;;;;;;3.00;2.00;;;0.40;99.90;;;;;;5094090;28;20448;-47
2022/11/28 05:17:46;;;;;;;3.33;2.70;;;0.20;99.90;;;;;;5094325;28;20479;-50
2022/11/28 05:20:13;;;;;;;5.80;2.70;;;0.10;99.90;;;;;;5093806;28;20803;-50
2022/11/28 05:22:41;;;;;;;3.87;1.93;;;0.10;99.90;;;;;;5093125;28;20464;-48
2022/11/28 05:25:09;;;;;;;2.93;2.07;;;0.20;99.90;;;;;;5093601;28;20440;-47
2022/11/28 05:27:36;;;;;;;2.90;1.60;;;0.40;99.90;;;;;;5089433;28;20581;-48
2022/11/28 05:30:05;;;;;;;6.20;2.40;;;0.60;99.90;;;;;;5093797;28;20444;-47
2022/11/28 05:32:33;;;;;;;4.57;3.97;;;0.80;99.90;;;;;;5093312;28;20903;-48
2022/11/28 05:35:00;;;;;;;4.97;4.47;;;0.80;99.90;;;;;;5093030;28;20448;-47
2022/11/28 05:37:26;;;;;;;4.90;4.20;;;0.90;99.90;;;;;;5093054;28;21010;-48
2022/11/28 05:39:55;;;;;;;4.30;3.20;;;0.80;99.90;;;;;;5090926;28;20816;-47
2022/11/28 05:42:21;;;;;;;4.30;3.90;;;0.70;99.90;;;;;;5092790;28;20467;-48
2022/11/28 05:44:49;;;;;;;4.90;4.40;;;0.70;99.90;;;;;;5092861;28;20446;-49
2022/11/28 05:47:16;;;;;;;5.20;3.57;;;0.60;99.90;;;;;;5092925;28;20889;-45
2022/11/28 05:49:43;;;;;;;5.23;3.47;;;0.60;99.90;;;;;;5093238;28;20443;-45
2022/11/28 05:52:09;;;;;;;3.70;3.20;;;0.70;99.90;;;;;;5092800;28;20464;-45
2022/11/28 05:54:36;;;;;;;4.33;3.17;;;0.60;99.90;;;;;;5092911;28;20446;-45
2022/11/28 05:57:06;;;;;;;3.20;2.73;;;0.70;99.90;;;;;;5093038;28;20846;-47
2022/11/28 05:59:34;;;;;;;3.53;2.70;;;0.80;99.90;;;;;;5092860;28;20970;-45
2022/11/28 06:02:01;;;;;;;3.43;2.60;;;0.80;99.90;;;;;;5092794;28;20464;-46
2022/11/28 06:04:28;;;;;;;3.63;2.90;;;0.90;99.90;;;;;;5093190;28;20440;-47
2022/11/28 06:06:54;;;;;;;5.53;4.60;;;1.10;99.90;;;;;;5092362;28;20928;-46
2022/11/28 06:09:21;;;;;;;3.87;3.10;;;0.70;99.90;;;;;;5092850;28;20447;-45
2022/11/28 06:11:48;;;;;;;5.87;5.47;;;0.40;99.90;;;;;;5092547;28;20486;-46
2022/11/28 06:14:16;;;;;;;5.93;5.33;;;0.10;99.90;;;;;;5092232;28;20924;-46
2022/11/28 06:16:43;;;;;;;7.70;4.93;;;-0.20;99.90;;;;;;5092543;28;20478;-45
2022/11/28 06:19:12;;;;;;;7.70;6.80;;;-0.30;99.90;;;;;;5092200;28;20956;-46
2022/11/28 06:21:38;;;;;;;6.23;5.63;;;-0.10;99.90;;;;;;5089327;28;20470;-49
2022/11/28 06:24:06;;;;;;;5.37;4.30;;;0.00;99.90;;;;;;5091362;28;20806;-45
2022/11/28 06:26:33;;;;;;;3.03;2.73;;;0.20;99.90;;;;;;5091922;28;20536;-46
2022/11/28 06:29:00;;;;;;;3.20;2.90;;;0.40;99.90;;;;;;5091711;28;20450;-46
2022/11/28 06:31:29;;;;;;;2.40;2.20;;;0.50;99.90;;;;;;5092494;28;20472;-46
2022/11/28 06:33:57;;;;;;;3.30;2.43;;;0.50;99.90;;;;;;5091456;28;20448;-45
2022/11/28 06:36:25;;;;;;;3.50;3.20;;;0.70;99.90;;;;;;5090910;28;20536;-47
2022/11/28 06:38:52;;;;;;;3.27;2.97;;;0.80;99.90;;;;;;5092517;28;20480;-45
2022/11/28 06:41:19;;;;;;;8.37;7.57;;;1.00;99.90;;;;;;5092542;28;20468;-46
2022/11/28 06:43:46;;;;;;;4.60;3.10;;;1.10;99.90;;;;;;5091899;28;20523;-46
2022/11/28 06:46:14;;;;;;;4.43;2.00;;;1.10;99.90;;;;;;5091790;28;20436;-45
2022/11/28 06:48:43;;;;;;;8.97;6.00;;;1.20;99.90;;;;;;5091374;28;20448;-46
2022/11/28 06:51:11;;;;;;;11.37;8.73;;;1.10;99.90;;;;;;5091092;28;20467;-46
2022/11/28 06:53:38;;;;;;;8.60;7.60;;;1.00;99.90;;;;;;5091396;28;20880;-45
2022/11/28 06:56:06;;;;;;;9.23;6.27;;;0.90;99.90;;;;;;5090495;28;20523;-49
2022/11/28 06:58:33;;;;;;;7.17;5.43;;;0.80;99.90;;;;;;5088840;28;20833;-46
2022/11/28 07:01:06;;;;;;;6.50;5.80;;;0.70;99.90;;;;;;5091810;28;20548;-46
2022/11/28 07:03:33;;;;;;;9.90;7.83;;;0.90;99.90;;;;;;5091218;28;20444;-48
2022/11/28 07:06:03;;;;;;;8.43;5.87;;;0.80;99.90;;;;;;5091777;28;20447;-46
2022/11/28 07:08:30;;;;;;;3.73;3.40;;;1.00;99.90;;;;;;5092291;28;20531;-46
2022/11/28 07:10:57;;;;;;;4.03;2.90;;;1.10;99.90;;;;;;5091253;28;20468;-46
2022/11/28 07:13:24;;;;;;;3.63;2.70;;;1.30;99.90;;;;;;5091440;28;20448;-47
2022/11/28 07:15:52;;;;;;;10.20;3.60;;;1.30;99.90;;;;;;5091616;28;20440;-45
2022/11/28 07:18:19;;;;;;;5.20;3.50;;;1.30;99.90;;;;;;5091531;28;20833;-46
2022/11/28 07:20:45;;;;;;;7.97;4.80;;;1.40;99.90;;;;;;5090128;28;20555;-46
2022/11/28 07:23:14;;;;;;;7.40;5.67;;;1.80;99.90;;;;;;5091050;28;20445;-47
2022/11/28 07:25:41;;;;;;;5.17;4.67;;;1.70;99.90;;;;;;5080733;28;20445;-45
2022/11/28 07:28:07;;;;;;;4.93;3.43;;;1.60;99.90;;;;;;5080193;28;20804;-46
2022/11/28 07:30:34;;;;;;;6.30;3.90;;;1.50;99.90;;;;;;5091572;28;20440;-45
2022/11/28 07:33:01;;;;;;;6.10;5.00;;;1.60;99.90;;;;;;5082981;28;20945;-48
2022/11/28 07:35:28;;;;;;;8.97;6.60;;;1.70;99.90;;;;;;5076933;28;20547;-45
2022/11/28 07:37:55;;;;;;;7.10;6.40;;;1.70;99.90;;;;;;5086888;28;20490;-45
2022/11/28 07:40:24;;;;;;;8.53;6.87;;;1.70;99.90;;;;;;5080315;28;20468;-45
2022/11/28 07:42:51;;;;;;;7.70;6.50;;;1.70;99.90;;;;;;5091300;28;20526;-42
2022/11/28 07:45:18;;;;;;;6.60;5.57;;;1.70;99.90;;;;;;5091295;28;20553;-47
2022/11/28 07:47:45;;;;;;;7.80;3.60;;;1.70;99.90;;;;;;5091717;28;20865;-46
2022/11/28 07:50:12;;;;;;;5.30;2.97;;;1.80;99.90;;;;;;5091475;28;20444;-46
2022/11/28 07:52:38;;;;;;;4.40;2.80;;;1.90;99.90;;;;;;5090730;28;20560;-46
2022/11/28 07:55:07;;;;;;;5.30;3.93;;;1.90;99.90;;;;;;5091351;28;20518;-46
2022/11/28 07:57:35;;;;;;;6.80;4.60;;;2.00;99.90;;;;;;5082699;28;20486;-46
2022/11/28 08:00:03;;;;;;;7.63;6.10;;;2.00;99.90;;;;;;5090918;28;20512;-47
2022/11/28 08:02:31;;;;;;;9.00;7.23;;;1.90;99.90;;;;;;5093014;28;20465;-46
2022/11/28 08:04:58;;;;;;;13.93;11.43;;;1.80;99.90;;;;;;5093785;28;20448;-46
2022/11/28 08:07:25;;;;;;;11.07;9.90;;;1.70;99.90;;;;;;5095557;28;20432;-47
2022/11/28 08:09:52;;;;;;;8.90;6.90;;;1.70;99.90;;;;;;5095226;28;20440;-46
2022/11/28 08:12:19;;;;;;;8.30;5.97;;;1.50;99.90;;;;;;5092434;28;20464;-46
2022/11/28 08:14:47;;;;;;;4.83;3.63;;;1.70;99.90;;;;;;5093357;28;20830;-49
2022/11/28 08:17:14;;;;;;;4.00;3.43;;;1.70;99.90;;;;;;5094915;28;20444;-49
2022/11/28 08:19:41;;;;;;;4.80;3.00;;;1.80;99.90;;;;;;5095078;28;20446;-46
2022/11/28 08:22:07;;;;;;;6.90;3.23;;;1.80;99.90;;;;;;5095290;28;20459;-46
2022/11/28 08:24:34;;;;;;;6.33;3.37;;;1.90;99.90;;;;;;5094114;28;20805;-48
2022/11/28 08:27:01;;;;;;;5.90;3.20;;;1.90;99.90;;;;;;5093462;28;20448;-47
2022/11/28 08:29:28;;;;;;;12.63;9.00;;;2.00;99.90;;;;;;5094199;28;20450;-45
2022/11/28 08:31:56;;;;;;;13.47;8.70;;;2.00;99.90;;;;;;5095358;28;20482;-50
2022/11/28 08:34:23;;;;;;;8.10;7.30;;;2.00;99.90;;;;;;5079624;28;20442;-48
2022/11/28 08:36:50;;;;;;;9.10;8.20;;;1.80;99.90;;;;;;5085765;28;20450;-46
2022/11/28 08:39:17;;;;;;;10.33;7.00;;;1.50;99.90;;;;;;5093933;28;20479;-46
2022/11/28 08:41:45;;;;;;;10.57;6.90;;;1.40;99.90;;;;;;5094606;28;20459;-46
2022/11/28 08:44:11;;;;;;;8.17;6.33;;;1.50;99.90;;;;;;5094440;28;20504;-46
2022/11/28 08:46:38;;;;;;;11.70;6.93;;;1.50;99.90;;;;;;5094341;28;20446;-46
2022/11/28 08:49:07;;;;;;;10.50;9.43;;;1.60;99.90;;;;;;5094527;28;20442;-46
2022/11/28 08:51:34;;;;;;;10.83;8.33;;;1.90;99.90;;;;;;5094278;28;20508;-46
2022/11/28 08:54:01;;;;;;;9.63;7.73;;;2.00;99.90;;;;;;5093933;28;20546;-46
2022/11/28 08:56:28;;;;;;;13.93;8.80;;;1.70;99.90;;;;;;5094232;28;20454;-46
2022/11/28 08:58:55;;;;;;;9.73;7.20;;;1.60;99.90;;;;;;5094284;28;20899;-47
2022/11/28 09:01:24;;;;;;;12.20;8.00;;;1.60;99.90;;;;;;5094123;28;20898;-44
2022/11/28 09:03:52;;;;;;;10.30;7.63;;;1.60;99.90;;;;;;5093926;28;20435;-46
2022/11/28 09:06:21;;;;;;;10.03;7.97;;;1.70;99.90;;;;;;5094271;28;20446;-46
2022/11/28 09:08:50;;;;;;;9.17;7.30;;;1.90;99.90;;;;;;5094006;28;20428;-47
2022/11/28 09:11:20;;;;;;;13.40;7.30;;;1.90;99.90;;;;;;5093889;28;21059;-46
2022/11/28 09:13:47;;;;;;;8.73;7.20;;;2.00;99.90;;;;;;5092926;28;20534;-45
2022/11/28 09:16:14;;;;;;;8.13;5.97;;;1.80;99.90;;;;;;5093829;28;20530;-49
2022/11/28 09:18:41;;;;;;;8.83;7.57;;;1.90;99.90;;;;;;5093930;28;20567;-46
2022/11/28 09:21:10;;;;;;;8.63;6.10;;;1.90;99.90;;;;;;5093835;28;20988;-45
2022/11/28 09:23:40;;;;;;;7.87;7.00;;;1.90;99.90;;;;;;5093845;28;20444;-46
2022/11/28 09:26:08;;;;;;;7.37;6.20;;;1.90;99.90;;;;;;5093635;28;20439;-46
2022/11/28 09:28:35;;;;;;;7.37;6.60;;;2.10;99.90;;;;;;5093522;28;20459;-47
2022/11/28 09:31:03;;;;;;;8.20;7.40;;;2.10;99.90;;;;;;5093110;28;20474;-49
2022/11/28 09:33:30;;;;;;;7.53;6.07;;;2.20;99.90;;;;;;5093430;28;20471;-48
2022/11/28 09:35:58;;;;;;;9.50;7.47;;;2.20;99.90;;;;;;5093574;28;20526;-49
2022/11/28 09:38:25;;;;;;;7.70;6.90;;;2.30;99.90;;;;;;5093824;28;20467;-47
2022/11/28 09:40:53;;;;;;;9.70;6.40;;;2.40;99.90;;;;;;5093450;28;20492;-48
2022/11/28 09:43:31;;;;;;;7.83;5.70;;;2.40;99.90;;;;;;5093266;28;21024;-48
2022/11/28 09:46:00;;;;;;;8.57;6.23;;;2.30;99.90;;;;;;5093542;28;20471;-48
2022/11/28 09:48:30;;;;;;;10.60;5.93;;;2.30;99.90;;;;;;5092971;28;20444;-48
2022/11/28 09:51:05;;;;;;;9.17;6.77;;;2.40;99.90;;;;;;5093472;28;20496;-48
2022/11/28 09:53:40;;;;;;;6.60;5.70;;;2.40;99.90;;;;;;5091637;28;20563;-48
2022/11/28 09:56:13;;;;;;;5.97;5.37;;;2.50;99.90;;;;;;5092639;28;20887;-49
2022/11/28 09:58:45;;;;;;;10.50;8.57;;;2.50;99.90;;;;;;5092056;28;20562;-48
2022/11/28 10:01:18;;;;;;;15.57;10.40;;;2.50;99.90;;;;;;5088336;28;20555;-48
2022/11/28 10:03:54;;;;;;;12.20;10.20;;;2.50;99.90;;;;;;5091735;28;20535;-50
2022/11/28 10:06:24;;;;;;;12.20;10.80;;;2.60;99.90;;;;;;5088136;28;20438;-48
2022/11/28 10:09:20;;;;;;;13.30;11.77;;;2.60;99.90;;;;;;5082194;28;20440;-51
2022/11/28 10:12:10;;;;;;;14.00;12.67;;;2.60;99.90;;;;;;5092758;28;20538;-50
2022/11/28 10:14:54;;;;;;;14.47;10.23;;;2.70;99.90;;;;;;5093384;28;20448;-50
2022/11/28 10:17:31;;;;;;;12.13;9.50;;;2.80;99.90;;;;;;5093199;28;20532;-49
2022/11/28 10:20:04;;;;;;;14.30;11.43;;;2.80;99.90;;;;;;5091975;28;20475;-48
2022/11/28 10:22:37;;;;;;;13.67;8.37;;;2.80;99.90;;;;;;5089009;28;20466;-47
2022/11/28 10:25:11;;;;;;;11.40;8.90;;;2.80;99.90;;;;;;5092096;28;20444;-49
2022/11/28 10:27:41;;;;;;;16.07;9.70;;;2.90;99.90;;;;;;5089078;28;20990;-50
2022/11/28 10:30:15;;;;;;;12.53;11.23;;;3.00;99.90;;;;;;5090926;28;20472;-48
2022/11/28 10:32:46;;;;;;;10.80;9.70;;;3.10;99.90;;;;;;5088634;28;20475;-47
2022/11/28 10:35:25;;;;;;;13.10;10.40;;;3.10;99.90;;;;;;5092131;28;20535;-48
2022/11/28 10:37:52;;;;;;;12.70;11.50;;;3.10;99.90;;;;;;5088268;28;20528;-48
2022/11/28 10:40:25;;;;;;;9.60;7.50;;;3.10;99.90;;;;;;5092043;28;20535;-48
2022/11/28 10:42:59;;;;;;;11.90;10.23;;;3.10;99.90;;;;;;5091735;28;20536;-46
2022/11/28 10:45:32;;;;;;;12.30;10.67;;;3.00;99.90;;;;;;5080689;28;20535;-50
2022/11/28 10:48:13;;;;;;;12.10;10.50;;;3.00;99.90;;;;;;5091149;28;20445;-48
2022/11/28 10:50:50;;;;;;;12.40;10.70;;;3.10;99.90;;;;;;5091675;28;20817;-50
2022/11/28 10:53:29;;;;;;;10.93;9.83;;;3.20;99.90;;;;;;5091934;28;20530;-48
2022/11/28 10:56:09;;;;;;;13.50;10.13;;;3.20;99.90;;;;;;5091923;28;20532;-51
2022/11/28 10:58:44;;;;;;;11.73;10.47;;;3.30;99.90;;;;;;5090218;28;21969;-50
2022/11/28 11:01:12;;;;;;;12.10;8.90;;;3.30;99.90;;;;;;5090287;28;20459;-49
2022/11/28 11:03:40;;;;;;;9.33;8.30;;;3.40;99.90;;;;;;5086180;28;20525;-49
2022/11/28 11:06:07;;;;;;;9.97;6.87;;;3.30;99.90;;;;;;5090489;28;20454;-50
2022/11/28 11:08:36;;;;;;;10.33;8.40;;;3.30;99.90;;;;;;5086741;28;20515;-48
2022/11/28 11:11:07;;;;;;;13.07;11.37;;;3.40;99.90;;;;;;5088486;28;21002;-49
2022/11/28 11:13:55;;;;;;;9.83;8.87;;;3.40;99.90;;;;;;5090645;28;20439;-50
2022/11/28 11:16:22;;;;;;;8.80;7.23;;;3.40;99.90;;;;;;5087921;28;20464;-49
2022/11/28 11:18:52;;;;;;;8.83;7.43;;;3.40;99.90;;;;;;5090958;28;20477;-51
2022/11/28 11:21:21;;;;;;;8.07;7.23;;;3.50;99.90;;;;;;5090583;28;20919;-49
2022/11/28 11:23:49;;;;;;;12.80;9.90;;;3.50;99.90;;;;;;5090714;28;20431;-49
2022/11/28 11:26:25;;;;;;;12.17;10.37;;;3.50;99.90;;;;;;5090375;28;20916;-48
2022/11/28 11:28:54;;;;;;;12.43;10.33;;;3.50;99.90;;;;;;5090353;28;20516;-49
2022/11/28 11:31:24;;;;;;;11.57;9.80;;;3.50;99.90;;;;;;5089846;28;20562;-48
2022/11/28 11:34:00;;;;;;;14.73;10.53;;;3.60;99.90;;;;;;5069566;28;20525;-49
2022/11/28 11:36:29;;;;;;;17.23;10.30;;;3.60;99.90;;;;;;5069021;28;20479;-48
2022/11/28 11:39:15;;;;;;;12.13;10.13;;;3.60;99.90;;;;;;5087098;28;20558;-48
2022/11/28 11:41:44;;;;;;;12.70;10.53;;;3.60;99.90;;;;;;5089759;28;20556;-49
2022/11/28 11:44:32;;;;;;;17.93;13.50;;;3.50;99.90;;;;;;5089533;28;20474;-49
2022/11/28 11:47:02;;;;;;;13.13;11.20;;;3.60;99.90;;;;;;5089714;28;20924;-49
2022/11/28 11:49:31;;;;;;;12.77;10.40;;;3.60;99.90;;;;;;5090822;28;20919;-50
2022/11/28 11:52:01;;;;;;;10.77;8.83;;;3.60;99.90;;;;;;5090176;28;20463;-48
2022/11/28 11:54:28;;;;;;;11.40;9.13;;;3.60;99.90;;;;;;5090071;28;20528;-48
2022/11/28 11:56:56;;;;;;;10.93;8.97;;;3.70;99.90;;;;;;5090563;28;20829;-48
2022/11/28 11:59:30;;;;;;;13.03;9.10;;;3.70;99.90;;;;;;5089673;28;20851;-46
2022/11/28 12:02:00;;;;;;;10.00;8.77;;;3.70;99.90;;;;;;5089756;28;20466;-46
2022/11/28 12:04:31;;;;;;;10.30;7.83;;;3.70;99.90;;;;;;5084303;28;20549;-46
2022/11/28 12:07:03;;;;;;;8.87;7.83;;;3.80;99.90;;;;;;5089709;28;20474;-48
2022/11/28 12:09:38;;;;;;;9.23;8.20;;;3.80;99.90;;;;;;5089779;28;20523;-51
2022/11/28 12:12:13;;;;;;;10.13;8.13;;;3.80;99.90;;;;;;5089477;28;20466;-51
2022/11/28 12:14:41;;;;;;;11.80;9.43;;;3.90;99.90;;;;;;5075987;28;20448;-48
2022/11/28 12:17:25;;;;;;;13.83;10.63;;;3.80;99.90;;;;;;5089632;28;20441;-48
2022/11/28 12:20:02;;;;;;;13.50;12.10;;;3.90;99.90;;;;;;5088564;28;20560;-52
2022/11/28 12:22:38;;;;;;;16.83;13.47;;;3.90;99.90;;;;;;5083856;28;20521;-51
2022/11/28 12:25:12;;;;;;;23.40;15.90;;;3.90;99.90;;;;;;5088505;28;20458;-51
2022/11/28 12:27:55;;;;;;;22.43;17.80;;;3.90;99.90;;;;;;5087903;28;20445;-48
2022/11/28 12:30:37;;;;;;;18.03;14.07;;;3.90;99.90;;;;;;5090102;28;20433;-49
2022/11/28 12:33:28;;;;;;;20.83;13.57;;;3.90;99.90;;;;;;5083932;28;20435;-50
2022/11/28 12:36:06;;;;;;;18.40;13.77;;;3.90;99.90;;;;;;5089366;28;20434;-48
2022/11/28 12:38:53;;;;;;;14.23;12.50;;;3.90;99.90;;;;;;5084848;28;20526;-48
2022/11/28 12:41:35;;;;;;;13.47;11.50;;;3.90;99.90;;;;;;5087157;28;20469;-48
2022/11/28 12:44:14;;;;;;;13.30;11.17;;;3.90;99.90;;;;;;5089138;28;21014;-48
2022/11/28 12:46:47;;;;;;;13.10;9.73;;;4.00;99.90;;;;;;5089419;28;20534;-51
2022/11/28 12:49:19;;;;;;;12.40;8.57;;;4.00;99.90;;;;;;5092269;28;20440;-48
2022/11/28 12:52:04;;;;;;;11.70;8.50;;;4.00;99.90;;;;;;5092860;28;20470;-49
2022/11/28 12:54:52;;;;;;;11.63;9.70;;;4.00;99.90;;;;;;5090295;28;20523;-48
2022/11/28 12:57:23;;;;;;;31.23;22.80;;;4.00;99.90;;;;;;5093134;28;20906;-49
2022/11/28 12:59:57;;;;;;;23.20;18.43;;;4.10;99.90;;;;;;5091936;28;20566;-49
2022/11/28 13:02:32;;;;;;;24.77;19.17;;;4.00;99.90;;;;;;5085143;28;20545;-48
2022/11/28 13:05:32;;;;;;;23.00;17.87;;;4.00;99.90;;;;;;5078779;28;20556;-47
2022/11/28 13:08:16;;;;;;;20.67;16.83;;;4.10;99.90;;;;;;5029276;28;20528;-48
2022/11/28 13:10:50;;;;;;;17.37;15.10;;;4.10;99.90;;;;;;5086869;28;20891;-50
2022/11/28 13:13:20;;;;;;;14.70;12.67;;;4.10;99.90;;;;;;5091839;28;20438;-48